Time;durP1;ratioP1;P1;durP2;ratioP2;P2;SDS_P1;SDS_P2;PMS_P1;PMS_P2;Temp;Humidity;BMP_temperature;BMP_pressure;BME280_temperature;BME280_humidity;BME280_pressure;Samples;Min_cycle;Max_cycle;Signal;HPM_P1;HPM_P2
2022/02/13 00:00:15;;;;;;;100.13;38.38;;;;;;;-3.12;64.36;99743.69;5070760;28;20024;-75
2022/02/13 00:02:42;;;;;;;121.15;43.75;;;;;;;-3.16;64.26;99743.22;5069931;28;20602;-74
2022/02/13 00:05:09;;;;;;;113.75;43.00;;;;;;;-3.17;64.83;99744.25;5070532;28;20021;-75
2022/02/13 00:07:35;;;;;;;102.50;38.80;;;;;;;-3.16;65.03;99738.69;5070635;28;20541;-75
2022/02/13 00:10:02;;;;;;;105.78;40.20;;;;;;;-3.15;64.72;99731.47;5070772;28;20498;-73
2022/02/13 00:12:28;;;;;;;101.07;36.50;;;;;;;-3.16;65.22;99736.00;5071956;28;20029;-72
2022/02/13 00:14:56;;;;;;;105.65;39.28;;;;;;;-3.18;64.97;99731.81;5071783;28;20028;-72
2022/02/13 00:17:22;;;;;;;101.72;37.80;;;;;;;-3.22;64.97;99728.63;5071941;28;20085;-72
2022/02/13 00:19:48;;;;;;;113.78;42.35;;;;;;;-3.18;65.05;99724.59;5070859;28;20024;-71
2022/02/13 00:22:15;;;;;;;88.13;33.38;;;;;;;-3.17;65.41;99715.53;5070344;28;20028;-71
2022/02/13 00:24:41;;;;;;;104.75;37.05;;;;;;;-3.18;65.41;99721.09;5069516;28;20028;-71
2022/02/13 00:27:06;;;;;;;89.18;34.65;;;;;;;-3.19;65.67;99704.16;5070315;28;20024;-71
2022/02/13 00:29:31;;;;;;;92.95;35.05;;;;;;;-3.14;65.41;99709.81;5070799;28;20103;-71
2022/02/13 00:31:57;;;;;;;82.78;33.40;;;;;;;-3.10;65.22;99712.16;5070395;28;20048;-71
2022/02/13 00:34:22;;;;;;;77.30;29.85;;;;;;;-3.07;65.84;99698.38;5070428;28;20138;-71
2022/02/13 00:36:47;;;;;;;88.45;33.80;;;;;;;-3.05;65.72;99699.88;5069864;28;20479;-71
2022/02/13 00:39:14;;;;;;;82.75;32.88;;;;;;;-3.01;65.57;99698.50;5070479;28;20125;-71
2022/02/13 00:41:40;;;;;;;72.25;30.27;;;;;;;-2.96;65.46;99695.31;5068880;28;20021;-71
2022/02/13 00:44:05;;;;;;;85.45;33.90;;;;;;;-2.95;65.54;99688.94;5069988;28;20040;-71
2022/02/13 00:46:31;;;;;;;69.97;28.77;;;;;;;-2.90;65.45;99689.22;5069721;28;20024;-71
2022/02/13 00:48:56;;;;;;;76.88;29.88;;;;;;;-2.90;65.37;99683.88;5070505;28;20032;-72
2022/02/13 00:51:22;;;;;;;72.57;29.23;;;;;;;-2.86;65.24;99679.81;5069864;28;20390;-71
2022/02/13 00:53:48;;;;;;;81.00;30.58;;;;;;;-2.81;65.26;99686.47;5069972;28;20389;-72
2022/02/13 00:56:14;;;;;;;74.13;28.13;;;;;;;-2.79;65.26;99677.25;5070159;28;20063;-71
2022/02/13 00:58:44;;;;;;;70.28;28.35;;;;;;;-2.80;65.33;99678.25;5069405;28;20024;-71
2022/02/13 01:01:10;;;;;;;75.38;30.15;;;;;;;-2.83;65.25;99678.59;5070194;28;20359;-72
2022/02/13 01:03:36;;;;;;;64.55;27.02;;;;;;;-2.85;65.12;99672.56;5068338;28;20042;-73
2022/02/13 01:06:02;;;;;;;71.72;27.50;;;;;;;-2.92;65.06;99668.94;5069535;28;20107;-72
2022/02/13 01:08:27;;;;;;;72.32;26.50;;;;;;;-2.96;65.36;99670.28;5067547;28;20485;-70
2022/02/13 01:10:53;;;;;;;65.57;26.17;;;;;;;-2.98;65.40;99659.75;5069324;28;20025;-70
2022/02/13 01:13:19;;;;;;;90.55;30.67;;;;;;;-3.01;65.19;99665.47;5069694;28;20363;-70
2022/02/13 01:15:44;;;;;;;119.78;40.05;;;;;;;-3.06;65.17;99651.75;5055831;28;20133;-71
2022/02/13 01:18:12;;;;;;;132.98;47.42;;;;;;;-3.12;64.99;99647.09;5038269;28;20020;-71
2022/02/13 01:20:38;;;;;;;104.22;35.45;;;;;;;-3.15;65.14;99650.97;5038229;28;20029;-70
2022/02/13 01:23:03;;;;;;;84.95;30.98;;;;;;;-3.18;65.17;99648.63;5043722;28;20021;-70
2022/02/13 01:25:29;;;;;;;71.72;28.08;;;;;;;-3.19;65.18;99645.09;5044240;28;20039;-69
2022/02/13 01:27:54;;;;;;;81.13;30.48;;;;;;;-3.17;65.54;99645.75;5043973;28;21181;-70
2022/02/13 01:30:20;;;;;;;83.63;32.17;;;;;;;-3.14;65.36;99639.22;5075633;28;21534;-70
2022/02/13 01:32:45;;;;;;;92.85;34.67;;;;;;;-3.11;65.38;99629.97;5044131;28;20117;-70
2022/02/13 01:35:11;;;;;;;79.20;29.30;;;;;;;-3.09;65.55;99628.78;5043595;28;20033;-69
2022/02/13 01:37:36;;;;;;;67.28;27.65;;;;;;;-3.09;65.46;99628.78;5036723;28;20059;-70
2022/02/13 01:40:03;;;;;;;68.13;28.67;;;;;;;-3.11;65.62;99616.56;5034764;28;20025;-70
2022/02/13 01:42:28;;;;;;;66.03;28.48;;;;;;;-3.09;65.47;99609.16;5039344;28;20400;-70
2022/02/13 01:44:55;;;;;;;58.42;24.65;;;;;;;-3.10;65.68;99604.81;5046801;28;20029;-71
2022/02/13 01:47:22;;;;;;;66.07;27.90;;;;;;;-3.11;65.46;99598.63;5066436;28;20032;-72
2022/02/13 01:49:48;;;;;;;63.47;23.10;;;;;;;-3.09;65.49;99601.97;5066828;28;20107;-72
2022/02/13 01:52:14;;;;;;;70.72;28.17;;;;;;;-3.12;65.62;99604.16;5065045;28;20120;-72
2022/02/13 01:54:40;;;;;;;71.65;27.60;;;;;;;-3.17;65.63;99591.28;5065205;28;20331;-72
2022/02/13 01:57:09;;;;;;;77.07;31.20;;;;;;;-3.20;65.72;99588.94;5067489;28;20115;-73
2022/02/13 01:59:35;;;;;;;74.70;29.75;;;;;;;-3.25;65.60;99591.31;5070235;28;20575;-72
2022/02/13 02:02:01;;;;;;;73.07;32.65;;;;;;;-3.29;65.56;99588.19;5068915;28;20040;-73
2022/02/13 02:04:27;;;;;;;71.30;28.48;;;;;;;-3.34;65.91;99583.31;5069846;28;20052;-73
2022/02/13 02:06:52;;;;;;;70.93;29.20;;;;;;;-3.36;65.58;99593.41;5070648;28;20471;-72
2022/02/13 02:09:18;;;;;;;75.80;28.30;;;;;;;-3.37;65.83;99583.69;5069970;28;20025;-72
2022/02/13 02:11:43;;;;;;;74.80;28.88;;;;;;;-3.38;65.57;99586.56;5070053;28;20048;-73
2022/02/13 02:14:09;;;;;;;70.65;27.40;;;;;;;-3.38;65.89;99579.31;5069184;28;20085;-72
2022/02/13 02:16:35;;;;;;;73.22;29.30;;;;;;;-3.40;65.31;99589.41;5070099;28;20519;-73
2022/02/13 02:19:01;;;;;;;77.60;30.10;;;;;;;-3.42;66.01;99580.69;5070046;28;20029;-73
2022/02/13 02:21:27;;;;;;;76.35;29.17;;;;;;;-3.44;66.18;99572.84;5069759;28;20085;-72
2022/02/13 02:23:52;;;;;;;87.25;33.08;;;;;;;-3.45;65.83;99581.03;5068477;28;20036;-73
2022/02/13 02:26:19;;;;;;;77.15;30.60;;;;;;;-3.50;65.70;99575.41;5069763;28;20029;-72
2022/02/13 02:28:45;;;;;;;86.70;32.72;;;;;;;-3.56;66.04;99566.19;5069662;28;20040;-73
2022/02/13 02:31:11;;;;;;;94.50;36.75;;;;;;;-3.59;65.92;99569.22;5069089;28;20053;-73
2022/02/13 02:33:36;;;;;;;95.28;34.35;;;;;;;-3.59;66.43;99555.81;5070138;28;20381;-72
2022/02/13 02:36:02;;;;;;;79.60;29.33;;;;;;;-3.55;66.67;99550.97;5069997;28;20398;-73
2022/02/13 02:38:27;;;;;;;84.43;33.78;;;;;;;-3.56;65.78;99558.16;5070456;28;20016;-73
2022/02/13 02:40:53;;;;;;;86.30;34.15;;;;;;;-3.57;66.08;99551.13;5070473;28;20414;-73
2022/02/13 02:43:19;;;;;;;77.55;29.38;;;;;;;-3.58;66.34;99552.13;5070742;28;20042;-72
2022/02/13 02:45:44;;;;;;;84.05;32.30;;;;;;;-3.61;66.09;99547.13;5069317;28;20036;-73
2022/02/13 02:48:10;;;;;;;83.68;32.45;;;;;;;-3.60;66.10;99548.78;5070698;28;20099;-72
2022/02/13 02:50:35;;;;;;;81.38;33.67;;;;;;;-3.57;66.48;99543.06;5070678;28;20155;-72
2022/02/13 02:53:01;;;;;;;90.22;34.30;;;;;;;-3.52;66.53;99531.84;5069838;28;20035;-72
2022/02/13 02:55:26;;;;;;;84.50;34.53;;;;;;;-3.49;66.26;99536.84;5069523;28;20032;-72
2022/02/13 02:57:52;;;;;;;90.00;34.97;;;;;;;-3.51;66.18;99528.13;5069983;28;20025;-72
2022/02/13 03:00:17;;;;;;;103.05;39.55;;;;;;;-3.56;66.34;99528.66;5070013;28;20031;-74
2022/02/13 03:02:43;;;;;;;97.60;35.95;;;;;;;-3.61;66.42;99533.72;5064675;28;20028;-72
2022/02/13 03:05:09;;;;;;;95.45;36.88;;;;;;;-3.66;66.22;99531.56;5069303;28;20028;-72
2022/02/13 03:07:34;;;;;;;98.95;34.33;;;;;;;-3.69;66.53;99534.59;5070697;28;20085;-72
2022/02/13 03:10:00;;;;;;;89.43;32.70;;;;;;;-3.67;66.52;99519.19;5072745;28;20032;-72
2022/02/13 03:12:25;;;;;;;90.03;33.30;;;;;;;-3.63;66.88;99520.50;5074803;28;20478;-75
2022/02/13 03:14:50;;;;;;;81.28;31.58;;;;;;;-3.59;66.69;99513.75;5071801;28;20033;-72
2022/02/13 03:17:16;;;;;;;78.93;30.52;;;;;;;-3.55;66.85;99518.78;5072002;28;20027;-72
2022/02/13 03:19:41;;;;;;;62.28;23.10;;;;;;;-3.50;66.60;99521.75;5071569;28;20035;-71
2022/02/13 03:22:07;;;;;;;78.57;31.25;;;;;;;-3.49;66.88;99512.69;5065974;28;20024;-72
2022/02/13 03:24:32;;;;;;;76.10;31.00;;;;;;;-3.43;66.62;99517.31;5069178;28;20032;-71
2022/02/13 03:26:58;;;;;;;71.88;29.52;;;;;;;-3.40;67.20;99514.28;5067514;28;20036;-72
2022/02/13 03:29:24;;;;;;;70.78;28.70;;;;;;;-3.35;66.80;99511.09;5070117;28;20025;-72
2022/02/13 03:31:49;;;;;;;68.70;29.08;;;;;;;-3.31;66.75;99505.16;5070155;28;20064;-71
2022/02/13 03:34:15;;;;;;;75.70;30.38;;;;;;;-3.26;66.81;99511.84;5067637;28;20142;-72
2022/02/13 03:36:40;;;;;;;70.28;32.08;;;;;;;-3.23;67.15;99514.16;5070861;28;20470;-72
2022/02/13 03:39:06;;;;;;;70.05;28.13;;;;;;;-3.20;67.16;99513.81;5070140;28;20070;-72
2022/02/13 03:41:32;;;;;;;72.72;29.95;;;;;;;-3.17;66.87;99505.41;5068987;28;20103;-72
2022/02/13 03:43:58;;;;;;;75.75;29.70;;;;;;;-3.18;66.86;99509.91;5070000;28;20039;-72
2022/02/13 03:46:23;;;;;;;77.40;30.13;;;;;;;-3.14;66.80;99503.19;5068811;28;20048;-72
2022/02/13 03:48:49;;;;;;;72.93;29.00;;;;;;;-3.10;66.99;99502.81;5068370;28;20056;-72
2022/02/13 03:51:15;;;;;;;76.68;29.92;;;;;;;-3.06;66.82;99501.44;5069781;28;20356;-72
2022/02/13 03:53:40;;;;;;;65.47;25.67;;;;;;;-3.03;67.29;99499.22;5069125;28;20394;-72
2022/02/13 03:56:06;;;;;;;63.90;26.92;;;;;;;-3.02;67.19;99500.06;5070055;28;20029;-72
2022/02/13 03:58:31;;;;;;;59.13;26.08;;;;;;;-2.99;67.27;99492.47;5069542;28;20024;-72
2022/02/13 04:00:59;;;;;;;64.00;27.00;;;;;;;-2.94;67.08;99488.41;5068412;28;20024;-72
2022/02/13 04:03:25;;;;;;;56.15;24.10;;;;;;;-2.93;67.17;99490.94;5066925;28;20027;-71
2022/02/13 04:05:54;;;;;;;57.00;24.75;;;;;;;-2.89;67.17;99480.66;5066409;28;20029;-72
2022/02/13 04:08:20;;;;;;;56.83;23.92;;;;;;;-2.87;67.00;99482.16;5069086;28;20020;-72
2022/02/13 04:10:45;;;;;;;59.08;23.50;;;;;;;-2.84;67.08;99475.56;5069951;28;20111;-73
2022/02/13 04:13:10;;;;;;;46.17;22.65;;;;;;;-2.82;66.81;99475.38;5069040;28;20036;-70
2022/02/13 04:15:36;;;;;;;49.70;21.92;;;;;;;-2.81;66.97;99464.47;5069697;28;20519;-70
2022/02/13 04:18:10;;;;;;;45.92;20.77;;;;;;;-2.77;66.75;99457.72;5069107;28;20024;-71
2022/02/13 04:20:35;;;;;;;44.88;18.77;;;;;;;-2.76;67.07;99463.91;5066350;28;20038;-71
2022/02/13 04:23:00;;;;;;;44.17;18.70;;;;;;;-2.75;66.85;99460.19;5068143;28;20076;-70
2022/02/13 04:25:26;;;;;;;44.67;18.10;;;;;;;-2.72;67.12;99457.13;5070515;28;20024;-72
2022/02/13 04:27:51;;;;;;;39.08;18.35;;;;;;;-2.71;67.15;99454.28;5068944;28;20518;-71
2022/02/13 04:30:17;;;;;;;44.22;18.92;;;;;;;-2.67;66.95;99448.56;5069915;28;20115;-71
2022/02/13 04:32:42;;;;;;;38.30;16.30;;;;;;;-2.66;66.93;99450.22;5069004;28;20032;-71
2022/02/13 04:35:08;;;;;;;37.17;15.80;;;;;;;-2.64;67.12;99449.00;5070026;28;20078;-72
2022/02/13 04:37:33;;;;;;;38.88;17.45;;;;;;;-2.64;66.89;99443.63;5070793;28;20028;-72
2022/02/13 04:39:59;;;;;;;39.30;17.58;;;;;;;-2.60;66.93;99444.06;5068760;28;20089;-71
2022/02/13 04:42:24;;;;;;;39.88;17.13;;;;;;;-2.59;66.94;99432.31;5069927;28;20032;-72
2022/02/13 04:44:49;;;;;;;39.97;16.05;;;;;;;-2.58;67.06;99437.50;5068892;28;20028;-72
2022/02/13 04:47:15;;;;;;;40.97;17.58;;;;;;;-2.55;66.84;99425.56;5070926;28;20458;-72
2022/02/13 04:49:40;;;;;;;49.35;19.65;;;;;;;-2.53;67.00;99433.44;5070730;28;20139;-72
2022/02/13 04:52:06;;;;;;;39.65;18.15;;;;;;;-2.52;67.10;99437.78;5070046;28;20032;-72
2022/02/13 04:54:31;;;;;;;42.55;19.70;;;;;;;-2.53;66.87;99439.63;5070151;28;20038;-72
2022/02/13 04:56:57;;;;;;;38.33;18.63;;;;;;;-2.53;66.84;99430.75;5070334;28;20023;-72
2022/02/13 04:59:22;;;;;;;39.33;17.85;;;;;;;-2.55;66.99;99429.09;5067979;28;20097;-72
2022/02/13 05:01:47;;;;;;;36.58;15.07;;;;;;;-2.58;66.76;99425.94;5070204;28;20017;-72
2022/02/13 05:04:13;;;;;;;37.28;17.15;;;;;;;-2.61;66.62;99429.84;5070540;28;20543;-72
2022/02/13 05:06:38;;;;;;;39.47;16.75;;;;;;;-2.65;66.64;99430.41;5070834;28;20314;-71
2022/02/13 05:09:04;;;;;;;34.60;17.17;;;;;;;-2.72;66.85;99425.78;5070500;28;20025;-72
2022/02/13 05:11:29;;;;;;;35.42;16.40;;;;;;;-2.72;66.62;99427.59;5069967;28;20067;-72
2022/02/13 05:13:55;;;;;;;36.75;16.23;;;;;;;-2.78;66.47;99423.81;5069153;28;20032;-72
2022/02/13 05:16:20;;;;;;;34.45;16.75;;;;;;;-2.86;66.78;99431.97;5070793;28;20024;-72
2022/02/13 05:18:46;;;;;;;38.58;17.88;;;;;;;-2.97;66.32;99427.88;5071923;28;20040;-71
2022/02/13 05:21:12;;;;;;;39.88;18.00;;;;;;;-3.03;66.81;99428.63;5069784;28;20029;-72
2022/02/13 05:23:37;;;;;;;33.28;15.18;;;;;;;-3.05;66.91;99430.66;5070164;28;20021;-72
2022/02/13 05:26:03;;;;;;;35.00;15.85;;;;;;;-3.07;66.81;99433.53;5069829;28;20360;-72
2022/02/13 05:28:29;;;;;;;31.10;16.02;;;;;;;-3.07;66.79;99421.94;5069564;28;20027;-71
2022/02/13 05:30:54;;;;;;;31.60;15.90;;;;;;;-3.09;66.76;99430.19;5069205;28;20072;-71
2022/02/13 05:33:20;;;;;;;27.52;13.68;;;;;;;-3.09;66.80;99426.66;5073152;28;20049;-72
2022/02/13 05:35:45;;;;;;;33.05;15.10;;;;;;;-3.16;66.58;99426.56;5073738;28;20044;-72
2022/02/13 05:38:11;;;;;;;31.27;13.70;;;;;;;-3.19;66.70;99435.81;5073872;28;20495;-72
2022/02/13 05:40:36;;;;;;;34.45;14.27;;;;;;;-3.19;67.15;99425.06;5073713;28;20031;-70
2022/02/13 05:43:02;;;;;;;32.15;14.95;;;;;;;-3.14;67.22;99422.69;5073322;28;20025;-71
2022/02/13 05:45:27;;;;;;;30.55;14.65;;;;;;;-3.11;67.00;99420.66;5073114;28;20604;-72
2022/02/13 05:47:52;;;;;;;34.10;16.70;;;;;;;-3.06;66.68;99415.56;5073560;28;20101;-72
2022/02/13 05:50:18;;;;;;;35.17;18.23;;;;;;;-3.02;67.41;99404.25;5073368;28;20028;-72
2022/02/13 05:52:44;;;;;;;35.15;16.95;;;;;;;-2.97;67.33;99411.78;5073486;28;20036;-72
2022/02/13 05:55:09;;;;;;;40.20;18.45;;;;;;;-2.99;67.31;99406.59;5073115;28;20359;-73
2022/02/13 05:57:34;;;;;;;43.95;19.73;;;;;;;-2.96;67.24;99416.13;5073417;28;20032;-72
2022/02/13 06:00:00;;;;;;;45.17;20.52;;;;;;;-2.93;67.40;99407.72;5073543;28;20032;-72
2022/02/13 06:02:25;;;;;;;50.80;23.70;;;;;;;-2.94;66.79;99403.38;5071261;28;20055;-73
2022/02/13 06:04:52;;;;;;;59.17;26.25;;;;;;;-2.95;66.92;99403.53;5067709;28;20115;-72
2022/02/13 06:07:18;;;;;;;60.50;28.60;;;;;;;-2.99;66.83;99398.53;5071656;28;20032;-73
2022/02/13 06:09:43;;;;;;;56.65;27.02;;;;;;;-2.95;67.28;99403.53;5072659;28;20043;-73
2022/02/13 06:12:09;;;;;;;46.78;24.23;;;;;;;-2.91;66.97;99392.25;5068766;28;20032;-73
2022/02/13 06:14:35;;;;;;;45.95;22.30;;;;;;;-2.85;67.39;99398.72;5067704;28;20090;-72
2022/02/13 06:17:00;;;;;;;47.58;24.77;;;;;;;-2.82;67.11;99392.13;5072144;28;20033;-76
2022/02/13 06:19:26;;;;;;;40.08;19.52;;;;;;;-2.77;67.13;99392.41;5081193;28;20543;-76
2022/02/13 06:21:53;;;;;;;32.45;15.52;;;;;;;-2.76;67.11;99388.72;5082931;28;20029;-76
2022/02/13 06:24:18;;;;;;;37.17;18.25;;;;;;;-2.72;67.40;99387.31;5084121;28;20078;-76
2022/02/13 06:26:44;;;;;;;37.65;18.02;;;;;;;-2.64;67.23;99387.22;5082923;28;20512;-76
2022/02/13 06:29:10;;;;;;;36.75;17.55;;;;;;;-2.59;67.24;99375.91;5083537;28;20020;-77
2022/02/13 06:31:35;;;;;;;44.22;19.50;;;;;;;-2.55;67.31;99391.47;5080025;28;20055;-77
2022/02/13 06:34:01;;;;;;;34.55;15.68;;;;;;;-2.45;67.27;99387.69;5079669;28;20033;-77
2022/02/13 06:36:26;;;;;;;40.10;20.33;;;;;;;-2.43;67.39;99389.13;5081090;28;20115;-77
2022/02/13 06:38:51;;;;;;;46.00;20.75;;;;;;;-2.35;67.47;99382.00;5081955;28;20024;-77
2022/02/13 06:41:17;;;;;;;38.20;19.17;;;;;;;-2.30;67.16;99383.09;5083883;28;20024;-76
2022/02/13 06:43:42;;;;;;;37.05;18.63;;;;;;;-2.24;67.33;99378.78;5081456;28;20016;-71
2022/02/13 06:46:08;;;;;;;35.25;16.80;;;;;;;-2.17;67.41;99389.63;5073829;28;20029;-76
2022/02/13 06:48:34;;;;;;;37.72;16.38;;;;;;;-2.11;67.18;99381.63;5077505;28;20028;-77
2022/02/13 06:51:00;;;;;;;46.65;20.30;;;;;;;-2.04;67.45;99380.88;5074662;28;20028;-76
2022/02/13 06:53:25;;;;;;;46.58;21.25;;;;;;;-2.01;67.55;99386.69;5072095;28;20394;-74
2022/02/13 06:55:51;;;;;;;39.67;17.52;;;;;;;-1.97;67.38;99385.28;5070816;28;20028;-74
2022/02/13 06:58:19;;;;;;;34.20;15.88;;;;;;;-1.96;67.57;99386.13;5071813;28;20060;-75
2022/02/13 07:00:45;;;;;;;27.20;15.00;;;;;;;-1.93;67.40;99379.53;5071896;28;20032;-75
2022/02/13 07:03:11;;;;;;;31.13;14.75;;;;;;;-1.87;67.38;99376.06;5069716;28;20154;-74
2022/02/13 07:05:37;;;;;;;28.15;13.95;;;;;;;-1.81;67.48;99380.69;5069280;28;20039;-75
2022/02/13 07:08:02;;;;;;;35.35;18.27;;;;;;;-1.71;67.78;99381.19;5071050;28;20029;-73
2022/02/13 07:10:28;;;;;;;35.67;19.35;;;;;;;-1.59;67.87;99375.28;5071178;28;20028;-75
2022/02/13 07:12:53;;;;;;;28.85;17.05;;;;;;;-1.50;67.41;99364.19;5070301;28;20024;-75
2022/02/13 07:15:19;;;;;;;35.45;17.83;;;;;;;-1.41;67.56;99347.88;5071261;28;20039;-75
2022/02/13 07:17:45;;;;;;;31.83;17.05;;;;;;;-1.30;67.51;99349.22;5070254;28;20078;-75
2022/02/13 07:20:11;;;;;;;41.33;17.83;;;;;;;-1.21;67.41;99342.63;5071274;28;20827;-75
2022/02/13 07:22:37;;;;;;;45.25;19.13;;;;;;;-1.12;67.58;99337.94;5069087;28;20100;-75
2022/02/13 07:25:08;;;;;;;41.33;18.08;;;;;;;-1.01;67.60;99333.84;5070656;28;20120;-74
2022/02/13 07:27:35;;;;;;;45.63;19.65;;;;;;;-0.90;67.22;99338.69;5069329;28;20040;-75
2022/02/13 07:30:02;;;;;;;48.15;19.88;;;;;;;-0.79;67.73;99326.50;5069192;28;20548;-75
2022/02/13 07:32:27;;;;;;;58.67;25.45;;;;;;;-0.70;67.41;99341.47;5066474;28;20409;-75
2022/02/13 07:34:53;;;;;;;48.85;21.92;;;;;;;-0.60;67.44;99344.59;5069841;28;20055;-75
2022/02/13 07:37:18;;;;;;;38.42;17.60;;;;;;;-0.49;67.31;99350.44;5067726;28;20482;-75
2022/02/13 07:39:43;;;;;;;32.33;15.38;;;;;;;-0.44;67.12;99345.28;5068231;28;20032;-75
2022/02/13 07:42:10;;;;;;;31.25;13.35;;;;;;;-0.38;66.40;99349.88;5069887;28;20076;-76
2022/02/13 07:44:37;;;;;;;31.50;15.35;;;;;;;-0.31;66.83;99349.88;5069346;28;20119;-75
2022/02/13 07:47:03;;;;;;;27.23;12.52;;;;;;;-0.27;66.68;99351.16;5067155;28;20070;-76
2022/02/13 07:49:28;;;;;;;25.77;10.82;;;;;;;-0.21;67.00;99350.34;5069712;28;20550;-75
2022/02/13 07:51:54;;;;;;;22.23;11.40;;;;;;;-0.14;66.24;99341.44;5068518;28;20107;-75
2022/02/13 07:54:20;;;;;;;24.33;11.75;;;;;;;-0.08;66.06;99344.13;5061711;28;20765;-73
2022/02/13 07:56:45;;;;;;;23.80;11.40;;;;;;;-0.01;65.92;99352.25;5068834;28;20432;-74
2022/02/13 07:59:11;;;;;;;27.08;12.20;;;;;;;0.05;65.57;99342.50;5071265;28;20024;-74
2022/02/13 08:01:36;;;;;;;27.35;13.68;;;;;;;0.10;65.83;99345.41;5065754;28;20024;-73
2022/02/13 08:04:01;;;;;;;29.17;14.68;;;;;;;0.17;65.44;99345.41;5064989;28;20036;-73
2022/02/13 08:06:27;;;;;;;29.02;13.45;;;;;;;0.27;66.00;99348.53;5066427;28;20036;-73
2022/02/13 08:08:52;;;;;;;25.80;12.60;;;;;;;0.34;64.62;99337.75;5065809;28;20024;-73
2022/02/13 08:11:18;;;;;;;23.20;11.05;;;;;;;0.41;64.73;99341.28;5067520;28;20473;-73
2022/02/13 08:13:45;;;;;;;24.08;11.02;;;;;;;0.49;64.38;99345.63;5065333;28;20466;-74
2022/02/13 08:16:11;;;;;;;22.65;10.18;;;;;;;0.56;63.29;99344.59;5065366;28;20116;-74
2022/02/13 08:18:39;;;;;;;18.33;9.73;;;;;;;0.61;63.52;99341.25;5065796;28;20621;-73
2022/02/13 08:21:08;;;;;;;20.58;9.60;;;;;;;0.68;62.50;99342.09;5064254;28;20036;-74
2022/02/13 08:23:35;;;;;;;20.40;9.68;;;;;;;0.76;62.51;99354.53;5064040;28;20033;-73
2022/02/13 08:26:01;;;;;;;22.25;9.18;;;;;;;0.82;62.37;99337.50;5065875;28;20033;-74
2022/02/13 08:28:29;;;;;;;16.80;8.55;;;;;;;0.92;62.44;99336.25;5066894;28;20086;-73
2022/02/13 08:30:55;;;;;;;19.77;9.55;;;;;;;1.01;61.57;99343.09;5065732;28;20049;-73
2022/02/13 08:33:20;;;;;;;16.42;8.25;;;;;;;1.07;61.73;99334.09;5064246;28;20684;-73
2022/02/13 08:35:45;;;;;;;21.65;10.05;;;;;;;1.12;61.46;99339.69;5069943;28;20040;-73
2022/02/13 08:38:11;;;;;;;21.77;10.02;;;;;;;1.21;62.08;99334.91;5067098;28;20367;-75
2022/02/13 08:40:37;;;;;;;19.48;9.10;;;;;;;1.30;60.60;99335.50;5066517;28;20036;-73
2022/02/13 08:43:06;;;;;;;21.27;8.98;;;;;;;1.36;60.54;99337.34;5064947;28;20028;-74
2022/02/13 08:45:33;;;;;;;20.05;10.25;;;;;;;1.42;60.53;99325.69;5064466;28;20395;-74
2022/02/13 08:47:59;;;;;;;18.63;9.52;;;;;;;1.49;60.21;99326.47;5064799;28;20426;-74
2022/02/13 08:50:25;;;;;;;18.08;8.68;;;;;;;1.57;60.32;99314.59;5064667;28;20107;-74
2022/02/13 08:52:51;;;;;;;18.20;9.10;;;;;;;1.63;59.18;99312.88;5065143;28;20052;-74
2022/02/13 08:55:18;;;;;;;17.98;8.98;;;;;;;1.69;59.84;99314.72;5062865;28;20040;-74
2022/02/13 08:57:45;;;;;;;21.02;8.75;;;;;;;1.75;59.74;99307.59;5065461;28;20151;-74
2022/02/13 09:00:12;;;;;;;21.52;10.27;;;;;;;1.81;59.53;99312.16;5066502;28;20032;-75
2022/02/13 09:02:38;;;;;;;15.15;8.35;;;;;;;1.86;57.90;99312.34;5065528;28;20024;-74
2022/02/13 09:05:06;;;;;;;15.48;8.05;;;;;;;1.90;58.63;99323.53;5064603;28;20031;-73
2022/02/13 09:07:34;;;;;;;16.05;8.85;;;;;;;1.94;58.02;99305.81;5062772;28;20032;-74
2022/02/13 09:09:59;;;;;;;15.10;8.60;;;;;;;1.99;58.02;99311.41;5064472;28;20038;-74
2022/02/13 09:12:25;;;;;;;14.38;8.18;;;;;;;2.04;58.12;99310.75;5064753;28;20107;-74
2022/02/13 09:14:51;;;;;;;16.42;8.55;;;;;;;2.08;57.44;99304.69;5064326;28;20033;-74
2022/02/13 09:17:16;;;;;;;15.48;9.05;;;;;;;2.08;56.66;99306.53;5063610;28;20070;-74
2022/02/13 09:19:42;;;;;;;16.52;8.95;;;;;;;2.05;57.02;99306.97;5063680;28;20032;-74
2022/02/13 09:22:08;;;;;;;17.23;8.55;;;;;;;2.06;56.36;99300.53;5064278;28;20032;-74
2022/02/13 09:24:34;;;;;;;16.98;8.15;;;;;;;2.07;56.63;99296.78;5064038;28;20012;-72
2022/02/13 09:26:59;;;;;;;18.95;8.38;;;;;;;2.07;55.98;99284.09;5064568;28;20102;-73
2022/02/13 09:29:25;;;;;;;19.67;11.18;;;;;;;2.09;56.68;99289.25;5064254;28;20061;-73
2022/02/13 09:31:50;;;;;;;17.80;10.10;;;;;;;2.14;56.80;99286.72;5063675;28;20391;-73
2022/02/13 09:34:18;;;;;;;19.58;8.82;;;;;;;2.20;55.67;99299.38;5062784;28;20032;-73
2022/02/13 09:36:45;;;;;;;17.00;8.20;;;;;;;2.26;55.75;99291.44;5064127;28;20064;-74
2022/02/13 09:39:11;;;;;;;13.63;7.93;;;;;;;2.31;55.19;99286.19;5064479;28;20448;-74
2022/02/13 09:41:39;;;;;;;14.38;8.30;;;;;;;2.34;56.37;99281.16;5064197;28;20127;-74
2022/02/13 09:44:05;;;;;;;13.77;7.03;;;;;;;2.40;55.33;99275.91;5063018;28;20040;-74
2022/02/13 09:46:30;;;;;;;15.82;7.90;;;;;;;2.46;55.77;99277.72;5063800;28;20043;-74
2022/02/13 09:48:56;;;;;;;14.40;7.45;;;;;;;2.54;55.15;99274.72;5065475;28;20029;-75
2022/02/13 09:51:21;;;;;;;13.60;6.53;;;;;;;2.58;54.80;99275.94;5068675;28;20027;-74
2022/02/13 09:53:47;;;;;;;30.73;11.98;;;;;;;2.62;53.87;99274.44;5064074;28;20466;-74
2022/02/13 09:56:12;;;;;;;26.25;10.50;;;;;;;2.70;53.88;99273.31;5062607;28;20027;-74
2022/02/13 09:58:38;;;;;;;16.08;7.18;;;;;;;2.74;52.92;99262.84;5063390;28;20514;-74
2022/02/13 10:01:06;;;;;;;13.20;6.28;;;;;;;2.79;53.38;99271.97;5063949;28;20032;-74
2022/02/13 10:03:35;;;;;;;22.27;8.75;;;;;;;2.90;53.88;99266.84;5064262;28;20110;-74
2022/02/13 10:06:13;;;;;;;23.17;8.97;;;;;;;2.96;53.57;99263.22;5062142;28;20029;-74
2022/02/13 10:08:47;;;;;;;33.60;12.57;;;;;;;3.03;53.13;99263.97;5063206;28;20020;-74
2022/02/13 10:11:14;;;;;;;14.35;7.40;;;;;;;3.10;51.84;99255.75;5063018;28;20513;-74
2022/02/13 10:13:53;;;;;;;14.13;7.10;;;;;;;3.16;53.23;99260.28;5064124;28;20780;-73
2022/02/13 10:16:22;;;;;;;15.82;6.82;;;;;;;3.23;52.30;99250.19;5062070;28;20045;-73
2022/02/13 10:19:07;;;;;;;13.38;7.15;;;;;;;3.26;52.37;99244.31;5066203;28;20051;-74
2022/02/13 10:21:50;;;;;;;12.70;6.60;;;;;;;3.33;50.03;99246.09;5066514;28;20025;-74
2022/02/13 10:24:26;;;;;;;13.23;6.78;;;;;;;3.36;51.18;99232.09;5066418;28;20020;-74
2022/02/13 10:27:14;;;;;;;19.42;8.63;;;;;;;3.42;51.26;99226.56;5066356;28;20024;-74
2022/02/13 10:29:42;;;;;;;12.65;7.10;;;;;;;3.49;51.69;99234.59;5067060;28;20028;-75
2022/02/13 10:32:16;;;;;;;13.35;7.00;;;;;;;3.57;50.92;99222.63;5067237;28;20040;-74
2022/02/13 10:35:11;;;;;;;14.70;7.53;;;;;;;3.70;52.31;99218.88;5065795;28;20417;-74
2022/02/13 10:37:42;;;;;;;16.90;8.40;;;;;;;3.80;51.45;99215.59;5066190;28;20024;-74
2022/02/13 10:40:11;;;;;;;8.68;5.78;;;;;;;3.94;51.37;99216.19;5065873;28;20737;-74
2022/02/13 10:42:36;;;;;;;10.52;6.90;;;;;;;4.02;48.91;99210.41;5066371;28;20024;-75
2022/02/13 10:45:26;;;;;;;10.88;6.15;;;;;;;4.06;49.09;99213.50;5065916;28;20532;-75
2022/02/13 10:48:04;;;;;;;10.27;6.13;;;;;;;4.13;48.74;99206.91;5065743;28;20036;-75
2022/02/13 10:50:37;;;;;;;13.88;6.57;;;;;;;4.22;48.19;99201.13;5065243;28;20505;-74
2022/02/13 10:53:06;;;;;;;11.48;6.47;;;;;;;4.29;48.00;99208.06;5066329;28;20630;-75
2022/02/13 10:55:34;;;;;;;11.48;6.18;;;;;;;4.34;47.15;99188.34;5065289;28;20035;-75
2022/02/13 10:58:00;;;;;;;11.35;6.60;;;;;;;4.41;48.33;99189.06;5066943;28;20040;-74
2022/02/13 11:00:29;;;;;;;10.68;6.20;;;;;;;4.52;47.18;99183.84;5067180;28;20028;-74
2022/02/13 11:02:55;;;;;;;13.65;5.40;;;;;;;4.59;44.96;99169.06;5066435;28;20021;-75
2022/02/13 11:05:21;;;;;;;8.07;5.25;;;;;;;4.64;45.65;99175.69;5065922;28;20023;-74
2022/02/13 11:07:55;;;;;;;9.90;5.60;;;;;;;4.70;46.18;99159.22;5066689;28;20021;-74
2022/02/13 11:10:25;;;;;;;9.77;5.40;;;;;;;4.78;45.86;99149.91;5066591;28;20429;-74
2022/02/13 11:12:53;;;;;;;10.00;5.80;;;;;;;4.84;46.13;99164.41;5066712;28;20020;-74
2022/02/13 11:15:28;;;;;;;8.38;4.63;;;;;;;4.91;44.91;99162.38;5065049;28;20140;-75
2022/02/13 11:17:57;;;;;;;11.40;6.07;;;;;;;4.98;44.26;99152.19;5063661;28;20031;-73